createdAt,value
2018-10-19T00:01:47.577Z,11.10
2018-10-19T00:04:19.391Z,11.00
2018-10-19T00:06:51.070Z,11.00
2018-10-19T00:09:22.893Z,10.90
2018-10-19T00:11:54.677Z,10.90
2018-10-19T00:14:26.438Z,10.80
2018-10-19T00:16:58.197Z,10.80
2018-10-19T00:19:30.047Z,10.80
2018-10-19T00:22:01.717Z,10.70
2018-10-19T00:24:33.572Z,10.70
2018-10-19T00:27:05.443Z,10.70
2018-10-19T00:29:37.489Z,10.70
2018-10-19T00:32:09.351Z,10.70
2018-10-19T00:34:41.121Z,10.70
2018-10-19T00:37:12.989Z,10.60
2018-10-19T00:39:44.817Z,10.60
2018-10-19T00:42:16.710Z,10.60
2018-10-19T00:44:48.352Z,10.60
2018-10-19T00:47:20.121Z,10.60
2018-10-19T00:49:51.869Z,10.60
2018-10-19T00:52:23.513Z,10.50
2018-10-19T00:54:55.266Z,10.50
2018-10-19T00:57:27.031Z,10.50
2018-10-19T00:59:58.716Z,10.40
2018-10-19T01:02:30.546Z,10.40
2018-10-19T01:05:02.420Z,10.40
2018-10-19T01:07:34.399Z,10.40
2018-10-19T01:10:06.471Z,10.40
2018-10-19T01:12:38.206Z,10.40
2018-10-19T01:15:09.970Z,10.40
2018-10-19T01:17:41.721Z,10.40
2018-10-19T01:20:13.474Z,10.40
2018-10-19T01:22:45.410Z,10.50
2018-10-19T01:25:17.218Z,10.40
2018-10-19T01:27:49.047Z,10.40
2018-10-19T01:30:20.944Z,10.50
2018-10-19T01:32:52.711Z,10.50
2018-10-19T01:35:24.538Z,10.50
2018-10-19T01:37:56.425Z,10.50
2018-10-19T01:40:28.172Z,10.60
2018-10-19T01:42:59.933Z,10.60
2018-10-19T01:45:31.883Z,10.70
2018-10-19T01:48:03.852Z,10.80
2018-10-19T01:50:35.709Z,10.90
2018-10-19T01:53:07.607Z,10.90
2018-10-19T01:55:39.428Z,10.90
2018-10-19T01:58:11.187Z,11.00
2018-10-19T02:00:42.998Z,11.00
2018-10-19T02:03:14.936Z,11.10
2018-10-19T02:05:46.798Z,11.10
2018-10-19T02:08:18.601Z,11.10
2018-10-19T02:10:50.400Z,11.10
2018-10-19T02:13:22.184Z,11.10
2018-10-19T02:15:54.145Z,11.10
2018-10-19T02:18:25.993Z,11.00
2018-10-19T02:20:57.789Z,10.90
2018-10-19T02:23:29.614Z,10.80
2018-10-19T02:26:01.272Z,10.80
2018-10-19T02:28:32.847Z,10.80
2018-10-19T02:31:04.716Z,10.80
2018-10-19T02:33:36.642Z,10.80
2018-10-19T02:36:08.547Z,10.70
2018-10-19T02:38:40.387Z,10.50
2018-10-19T02:41:12.198Z,10.40
2018-10-19T02:43:43.993Z,10.20
2018-10-19T02:46:15.946Z,10.10
2018-10-19T02:48:47.700Z,10.00
2018-10-19T02:51:19.445Z,10.00
2018-10-19T02:53:51.244Z,10.00
2018-10-19T02:56:22.998Z,10.00
2018-10-19T02:58:54.792Z,10.00
2018-10-19T03:01:26.615Z,10.00
2018-10-19T03:03:58.360Z,10.00
2018-10-19T03:06:30.137Z,10.00
2018-10-19T03:09:01.945Z,10.00
2018-10-19T03:11:33.710Z,10.00
2018-10-19T03:14:05.562Z,9.90
2018-10-19T03:16:37.379Z,9.90
2018-10-19T03:19:09.344Z,9.80
2018-10-19T03:21:41.114Z,9.80
2018-10-19T03:24:12.927Z,9.70
2018-10-19T03:26:44.687Z,9.70
2018-10-19T03:29:16.412Z,9.70
2018-10-19T03:31:48.340Z,9.60
2018-10-19T03:34:20.079Z,9.60
2018-10-19T03:36:51.746Z,9.60
2018-10-19T03:39:23.404Z,9.60
2018-10-19T03:41:55.254Z,9.60
2018-10-19T03:44:27.016Z,9.60
2018-10-19T03:46:58.766Z,9.60
2018-10-19T03:49:30.627Z,9.60
2018-10-19T03:52:02.493Z,9.70
2018-10-19T03:54:34.158Z,9.70
2018-10-19T03:57:06.649Z,9.70
2018-10-19T03:59:38.394Z,9.70
2018-10-19T04:02:10.132Z,9.70
2018-10-19T04:04:41.996Z,9.60
2018-10-19T04:07:13.889Z,9.50
2018-10-19T04:09:45.531Z,9.50
2018-10-19T04:12:17.305Z,9.40
2018-10-19T04:14:48.933Z,9.40
2018-10-19T04:17:20.614Z,9.50
2018-10-19T04:19:52.345Z,9.50
2018-10-19T04:22:24.013Z,9.50
2018-10-19T04:24:55.757Z,9.60
2018-10-19T04:27:27.567Z,9.60
2018-10-19T04:29:59.400Z,9.60
2018-10-19T04:32:31.142Z,9.60
2018-10-19T04:35:03.100Z,9.60
2018-10-19T04:37:34.785Z,9.60
2018-10-19T04:40:10.078Z,9.60
2018-10-19T04:42:41.775Z,9.50
2018-10-19T04:45:13.474Z,9.50
2018-10-19T04:47:45.375Z,9.50
2018-10-19T04:50:17.266Z,9.50
2018-10-19T04:52:49.214Z,9.50
2018-10-19T04:55:22.469Z,9.30
2018-10-19T04:57:54.271Z,9.20
2018-10-19T05:00:26.028Z,9.10
2018-10-19T05:02:57.975Z,9.00
2018-10-19T05:05:30.052Z,8.90
2018-10-19T05:08:01.814Z,9.00
2018-10-19T05:10:33.699Z,9.10
2018-10-19T05:13:05.417Z,9.20
2018-10-19T05:15:37.191Z,9.30
2018-10-19T05:18:08.974Z,9.20
2018-10-19T05:20:40.620Z,9.10
2018-10-19T05:23:12.405Z,9.10
2018-10-19T05:25:44.018Z,9.10
2018-10-19T05:28:15.696Z,9.10
2018-10-19T05:30:47.566Z,9.20
2018-10-19T05:33:19.213Z,9.30
2018-10-19T05:35:50.980Z,9.30
2018-10-19T05:38:22.700Z,9.30
2018-10-19T05:40:54.446Z,9.30
2018-10-19T05:43:26.276Z,9.20
2018-10-19T05:45:57.988Z,9.20
2018-10-19T05:48:29.777Z,9.20
2018-10-19T05:51:01.631Z,9.20
2018-10-19T05:53:33.462Z,9.20
2018-10-19T05:56:05.488Z,9.30
2018-10-19T05:58:37.530Z,9.30
2018-10-19T06:01:09.379Z,9.20
2018-10-19T06:03:41.233Z,9.30
2018-10-19T06:06:13.084Z,9.30
2018-10-19T06:08:44.758Z,9.40
2018-10-19T06:11:16.479Z,9.30
2018-10-19T06:13:48.366Z,9.40
2018-10-19T06:16:20.132Z,9.40
2018-10-19T06:18:51.792Z,9.50
2018-10-19T06:21:23.664Z,9.50
2018-10-19T06:23:55.289Z,9.60
2018-10-19T06:26:27.234Z,9.70
2018-10-19T06:28:59.019Z,9.80
2018-10-19T06:31:30.876Z,9.80
2018-10-19T06:34:02.663Z,9.80
2018-10-19T06:39:18.858Z,9.80
2018-10-19T06:41:50.965Z,9.90
2018-10-19T06:44:22.801Z,10.00
2018-10-19T06:46:54.467Z,10.10
2018-10-19T06:49:26.291Z,10.30
2018-10-19T06:51:58.188Z,10.60
2018-10-19T06:54:29.904Z,10.70
2018-10-19T06:57:01.580Z,10.90
2018-10-19T06:59:33.514Z,11.10
2018-10-19T07:02:05.300Z,11.30
2018-10-19T07:04:37.086Z,11.40
2018-10-19T07:07:08.946Z,11.60
2018-10-19T07:09:40.791Z,11.80
2018-10-19T07:12:12.613Z,11.90
2018-10-19T07:14:44.301Z,12.10
2018-10-19T07:17:16.108Z,12.30
2018-10-19T07:19:48.046Z,12.50
2018-10-19T07:22:19.678Z,12.70
2018-10-19T07:24:51.510Z,12.90
2018-10-19T07:27:23.289Z,13.10
2018-10-19T07:29:55.006Z,13.30
2018-10-19T07:32:26.829Z,13.50
2018-10-19T07:34:58.852Z,13.60
2018-10-19T07:37:30.669Z,13.80
2018-10-19T07:40:02.306Z,13.90
2018-10-19T07:42:34.212Z,14.00
2018-10-19T07:45:06.563Z,14.10
2018-10-19T07:47:38.440Z,14.20
2018-10-19T07:50:10.875Z,14.30
2018-10-19T07:52:42.653Z,14.40
2018-10-19T07:55:14.396Z,14.50
2018-10-19T07:57:46.169Z,14.60
2018-10-19T08:00:17.844Z,14.80
2018-10-19T08:02:49.674Z,14.90
2018-10-19T08:05:21.519Z,15.10
2018-10-19T08:07:53.335Z,15.30
2018-10-19T08:10:25.076Z,15.50
2018-10-19T08:12:56.823Z,15.70
2018-10-19T08:15:28.562Z,15.90
2018-10-19T08:18:00.370Z,16.10
2018-10-19T08:20:32.104Z,16.40
2018-10-19T08:23:03.912Z,16.50
2018-10-19T08:25:35.615Z,16.60
2018-10-19T08:28:07.578Z,16.70
2018-10-19T08:30:39.448Z,16.80
2018-10-19T08:33:11.228Z,16.90
2018-10-19T08:35:43.061Z,17.00
2018-10-19T08:38:14.938Z,17.20
2018-10-19T08:40:46.813Z,17.30
2018-10-19T08:43:18.717Z,17.50
2018-10-19T08:45:50.595Z,17.70
2018-10-19T08:48:22.360Z,17.90
2018-10-19T08:50:54.036Z,18.10
2018-10-19T08:53:25.967Z,18.30
2018-10-19T08:55:57.764Z,18.50
2018-10-19T08:58:29.607Z,18.80
2018-10-19T09:01:01.471Z,19.00
2018-10-19T09:03:33.485Z,19.30
2018-10-19T09:06:05.475Z,19.60
2018-10-19T09:08:37.259Z,19.90
2018-10-19T09:11:09.061Z,20.20
2018-10-19T09:13:41.067Z,20.80
2018-10-19T09:16:12.738Z,21.60
2018-10-19T09:18:44.502Z,22.40
2018-10-19T09:21:16.249Z,23.10
2018-10-19T09:23:47.902Z,23.50
2018-10-19T09:26:19.771Z,23.70
2018-10-19T09:28:51.540Z,23.90
2018-10-19T09:31:23.184Z,23.80
2018-10-19T09:33:54.851Z,24.00
2018-10-19T09:36:26.801Z,24.10
2018-10-19T09:38:58.623Z,24.30
2018-10-19T09:41:30.325Z,23.80
2018-10-19T09:44:01.936Z,23.30
2018-10-19T09:46:33.760Z,22.80
2018-10-19T09:49:05.622Z,22.90
2018-10-19T09:51:38.031Z,23.20
2018-10-19T09:54:10.467Z,23.40
2018-10-19T09:56:42.374Z,23.30
2018-10-19T09:59:14.313Z,22.80
2018-10-19T10:01:46.299Z,22.30
2018-10-19T10:04:18.096Z,22.00
2018-10-19T10:06:49.778Z,22.00
2018-10-19T10:09:21.636Z,22.00
2018-10-19T10:11:53.494Z,21.90
2018-10-19T10:14:25.250Z,21.90
2018-10-19T10:16:57.105Z,21.90
2018-10-19T10:19:29.055Z,22.00
2018-10-19T10:22:00.755Z,22.20
2018-10-19T10:24:32.495Z,22.30
2018-10-19T10:27:04.357Z,22.60
2018-10-19T10:29:35.997Z,22.80
2018-10-19T10:32:07.669Z,23.00
2018-10-19T10:34:39.420Z,23.20
2018-10-19T10:37:11.338Z,23.40
2018-10-19T10:39:43.148Z,23.50
2018-10-19T10:42:15.108Z,23.80
2018-10-19T10:44:46.843Z,24.00
2018-10-19T10:47:18.621Z,24.40
2018-10-19T10:49:50.467Z,25.00
2018-10-19T10:52:22.332Z,25.30
2018-10-19T10:54:54.016Z,25.30
2018-10-19T10:57:26.047Z,25.40
2018-10-19T10:59:57.934Z,25.50
2018-10-19T11:02:29.683Z,26.20
2018-10-19T11:05:01.438Z,26.30
2018-10-19T11:07:33.485Z,26.40
2018-10-19T11:10:05.352Z,26.60
2018-10-19T11:12:37.152Z,26.50
2018-10-19T11:15:09.818Z,26.40
2018-10-19T11:17:41.466Z,26.30
2018-10-19T11:20:13.310Z,26.10
2018-10-19T11:22:45.097Z,26.30
2018-10-19T11:25:16.990Z,26.50
2018-10-19T11:27:48.931Z,26.60
2018-10-19T11:30:20.790Z,27.00
2018-10-19T11:32:52.543Z,26.90
2018-10-19T11:35:24.279Z,27.20
2018-10-19T11:37:55.943Z,27.20
2018-10-19T11:40:35.094Z,27.10
2018-10-19T11:43:07.238Z,26.60
2018-10-19T11:45:39.759Z,26.80
2018-10-19T11:48:11.593Z,27.30
2018-10-19T11:50:43.458Z,27.80
2018-10-19T11:53:15.217Z,27.90
2018-10-19T11:55:46.960Z,27.90
2018-10-19T11:58:18.829Z,27.80
2018-10-19T12:00:50.669Z,27.80
2018-10-19T12:03:22.634Z,27.60
2018-10-19T12:05:54.294Z,27.20
2018-10-19T12:08:25.967Z,26.40
2018-10-19T12:10:57.745Z,25.50
2018-10-19T12:13:29.597Z,24.50
2018-10-19T12:16:01.255Z,23.50
2018-10-19T12:18:33.110Z,22.90
2018-10-19T12:21:04.917Z,22.80
2018-10-19T12:23:36.828Z,22.90
2018-10-19T12:26:08.855Z,22.90
2018-10-19T12:28:40.734Z,23.20
2018-10-19T12:31:12.519Z,23.70
2018-10-19T12:33:44.155Z,24.20
2018-10-19T12:36:15.967Z,24.70
2018-10-19T12:38:47.670Z,25.20
2018-10-19T12:41:19.407Z,25.60
2018-10-19T12:43:51.295Z,25.90
2018-10-19T12:46:41.204Z,26.50
2018-10-19T12:49:14.739Z,27.00
2018-10-19T12:51:46.635Z,26.90
2018-10-19T12:54:18.869Z,27.10
2018-10-19T12:56:50.721Z,27.50
2018-10-19T12:59:22.436Z,27.70
2018-10-19T13:01:54.181Z,27.60
2018-10-19T13:04:26.041Z,27.80
2018-10-19T13:06:57.866Z,28.30
2018-10-19T13:09:29.693Z,28.80
2018-10-19T13:12:01.518Z,29.10
2018-10-19T13:14:33.305Z,29.40
2018-10-19T13:17:05.264Z,29.60
2018-10-19T13:19:37.113Z,29.50
2018-10-19T13:22:09.071Z,29.70
2018-10-19T13:24:40.847Z,29.00
2018-10-19T13:27:12.723Z,28.30
2018-10-19T13:29:44.480Z,28.20
2018-10-19T13:32:16.236Z,28.30
2018-10-19T13:34:47.877Z,28.50
2018-10-19T13:37:19.762Z,28.40
2018-10-19T13:39:51.397Z,28.50
2018-10-19T13:42:23.135Z,28.30
2018-10-19T13:44:54.941Z,28.30
2018-10-19T13:47:26.706Z,28.10
2018-10-19T13:49:58.546Z,27.90
2018-10-19T13:52:30.375Z,27.70
2018-10-19T13:55:02.039Z,27.70
2018-10-19T13:57:34.013Z,27.60
2018-10-19T14:00:05.915Z,27.50
2018-10-19T14:02:37.852Z,27.40
2018-10-19T14:05:10.078Z,27.20
2018-10-19T14:07:41.856Z,26.70
2018-10-19T14:10:13.645Z,26.10
2018-10-19T14:12:45.299Z,25.60
2018-10-19T14:15:17.131Z,25.20
2018-10-19T14:17:48.811Z,24.90
2018-10-19T14:20:20.596Z,24.50
2018-10-19T14:22:52.703Z,24.00
2018-10-19T14:25:24.411Z,23.40
2018-10-19T14:27:56.160Z,22.90
2018-10-19T14:30:27.990Z,22.30
2018-10-19T14:32:59.698Z,21.70
2018-10-19T14:35:31.543Z,21.20
2018-10-19T14:38:03.480Z,20.80
2018-10-19T14:40:35.565Z,20.50
2018-10-19T14:43:07.715Z,20.20
2018-10-19T14:45:39.376Z,19.90
2018-10-19T14:48:11.279Z,19.70
2018-10-19T14:50:43.093Z,19.40
2018-10-19T14:53:15.041Z,19.20
2018-10-19T14:55:46.829Z,19.10
2018-10-19T14:58:18.494Z,19.00
2018-10-19T15:00:50.326Z,18.90
2018-10-19T15:03:22.191Z,18.80
2018-10-19T15:05:53.981Z,18.70
2018-10-19T15:08:25.738Z,18.60
2018-10-19T15:10:57.738Z,18.50
2018-10-19T15:13:29.344Z,18.40
2018-10-19T15:16:01.198Z,18.20
2018-10-19T15:18:32.918Z,18.10
2018-10-19T15:21:04.678Z,18.00
2018-10-19T15:23:36.575Z,18.00
2018-10-19T15:26:08.253Z,17.90
2018-10-19T15:28:40.010Z,17.80
2018-10-19T15:31:11.879Z,17.70
2018-10-19T15:33:43.536Z,17.50
2018-10-19T15:36:15.263Z,17.40
2018-10-19T15:38:47.057Z,17.30
2018-10-19T15:41:19.025Z,17.20
2018-10-19T15:43:50.877Z,17.20
2018-10-19T15:46:22.572Z,17.00
2018-10-19T15:48:54.402Z,16.90
2018-10-19T15:51:26.138Z,16.80
2018-10-19T15:53:57.809Z,16.70
2018-10-19T15:56:29.560Z,16.60
2018-10-19T15:59:01.429Z,16.60
2018-10-19T16:01:33.180Z,16.50
2018-10-19T16:04:05.102Z,16.50
2018-10-19T16:06:36.877Z,16.40
2018-10-19T16:09:12.467Z,16.30
2018-10-19T16:11:44.904Z,16.30
2018-10-19T16:14:16.669Z,16.20
2018-10-19T16:16:48.455Z,16.10
2018-10-19T16:19:20.197Z,16.00
2018-10-19T16:21:51.950Z,16.00
2018-10-19T16:24:23.731Z,15.90
2018-10-19T16:26:55.503Z,15.70
2018-10-19T16:29:27.415Z,15.50
2018-10-19T16:31:59.282Z,15.40
2018-10-19T16:34:30.944Z,15.20
2018-10-19T16:37:02.633Z,15.10
2018-10-19T16:39:34.464Z,14.90
2018-10-19T16:42:06.391Z,14.80
2018-10-19T16:44:38.104Z,14.60
2018-10-19T16:47:10.047Z,14.60
2018-10-19T16:49:41.674Z,14.50
2018-10-19T16:52:13.543Z,14.40
2018-10-19T16:54:45.349Z,14.30
2018-10-19T16:57:17.220Z,14.30
2018-10-19T16:59:48.965Z,14.20
2018-10-19T17:02:20.831Z,14.20
2018-10-19T17:04:52.816Z,14.10
2018-10-19T17:07:24.340Z,14.00
2018-10-19T17:09:56.110Z,13.90
2018-10-19T17:12:27.872Z,14.00
2018-10-19T17:14:59.768Z,13.90
2018-10-19T17:17:31.590Z,13.90
2018-10-19T17:20:03.430Z,13.80
2018-10-19T17:22:35.202Z,13.80
2018-10-19T17:25:09.162Z,13.80
2018-10-19T17:27:41.220Z,13.70
2018-10-19T17:30:14.517Z,13.60
2018-10-19T17:32:46.318Z,13.50
2018-10-19T17:35:18.096Z,13.30
2018-10-19T17:37:49.834Z,13.20
2018-10-19T17:40:21.499Z,13.00
2018-10-19T17:42:53.234Z,12.90
2018-10-19T17:45:25.111Z,12.80
2018-10-19T17:47:56.919Z,12.70
2018-10-19T17:50:28.720Z,12.60
2018-10-19T17:53:00.669Z,12.50
2018-10-19T17:55:32.364Z,12.40
2018-10-19T17:58:04.135Z,12.30
2018-10-19T18:00:35.976Z,12.30
2018-10-19T18:03:07.857Z,12.20
2018-10-19T18:05:39.715Z,12.20
2018-10-19T18:08:11.479Z,12.20
2018-10-19T18:10:43.236Z,12.20
2018-10-19T18:13:14.901Z,12.20
2018-10-19T18:15:46.698Z,12.20
2018-10-19T18:18:18.515Z,12.20
2018-10-19T18:20:50.280Z,12.10
2018-10-19T18:23:22.428Z,12.10
2018-10-19T18:25:54.029Z,12.10
2018-10-19T18:28:25.961Z,12.10
2018-10-19T18:30:57.889Z,12.10
2018-10-19T18:33:29.683Z,12.10
2018-10-19T18:36:01.535Z,12.00
2018-10-19T18:38:33.720Z,12.00
2018-10-19T18:41:05.783Z,11.90
2018-10-19T18:43:37.640Z,11.90
2018-10-19T18:46:09.489Z,11.90
2018-10-19T18:48:41.347Z,12.00
2018-10-19T18:51:13.016Z,12.00
2018-10-19T18:53:44.761Z,12.10
2018-10-19T18:56:16.562Z,12.10
2018-10-19T18:58:48.270Z,12.00
2018-10-19T19:01:20.034Z,12.00
2018-10-19T19:03:52.001Z,11.90
2018-10-19T19:06:23.787Z,11.80
2018-10-19T19:08:55.532Z,11.80
2018-10-19T19:11:27.293Z,11.70
2018-10-19T19:13:59.170Z,11.70
2018-10-19T19:16:31.702Z,11.60
2018-10-19T19:19:03.492Z,11.60
2018-10-19T19:21:35.312Z,11.60
2018-10-19T19:24:12.270Z,11.60
2018-10-19T19:26:43.975Z,11.60
2018-10-19T19:29:15.910Z,11.60
2018-10-19T19:31:47.683Z,11.50
2018-10-19T19:34:22.350Z,11.40
2018-10-19T19:36:54.096Z,11.30
2018-10-19T19:39:25.843Z,11.30
2018-10-19T19:42:02.532Z,11.20
2018-10-19T19:44:34.295Z,11.20
2018-10-19T19:47:06.544Z,11.10
2018-10-19T19:49:40.632Z,11.10
2018-10-19T19:52:12.417Z,11.00
2018-10-19T19:54:44.176Z,10.90
2018-10-19T19:57:15.886Z,10.90
2018-10-19T19:59:47.682Z,10.80
2018-10-19T20:02:19.480Z,10.80
2018-10-19T20:04:51.438Z,10.90
2018-10-19T20:07:23.193Z,10.90
2018-10-19T20:09:55.029Z,10.90
2018-10-19T20:12:26.811Z,10.80
2018-10-19T20:14:58.676Z,10.80
2018-10-19T20:17:30.329Z,10.70
2018-10-19T20:20:02.171Z,10.70
2018-10-19T20:22:33.823Z,10.80
2018-10-19T20:25:06.442Z,10.80
2018-10-19T20:27:39.008Z,10.80
2018-10-19T20:30:13.147Z,10.80
2018-10-19T20:32:45.085Z,10.80
2018-10-19T20:35:17.040Z,10.80
2018-10-19T20:37:48.913Z,10.70
2018-10-19T20:40:20.660Z,10.70
2018-10-19T20:42:52.605Z,10.60
2018-10-19T20:45:24.397Z,10.60
2018-10-19T20:47:56.254Z,10.50
2018-10-19T20:50:27.984Z,10.50
2018-10-19T20:52:59.792Z,10.40
2018-10-19T20:55:31.554Z,10.40
2018-10-19T20:58:03.286Z,10.40
2018-10-19T21:00:35.056Z,10.30
2018-10-19T21:03:06.984Z,10.30
2018-10-19T21:05:38.773Z,10.30
2018-10-19T21:08:10.759Z,10.20
2018-10-19T21:10:42.775Z,10.20
2018-10-19T21:13:14.576Z,10.10
2018-10-19T21:15:46.420Z,10.10
2018-10-19T21:18:18.276Z,10.00
2018-10-19T21:20:50.044Z,10.00
2018-10-19T21:23:21.696Z,10.00
2018-10-19T21:25:53.561Z,9.90
2018-10-19T21:28:25.524Z,9.90
2018-10-19T21:30:57.282Z,10.00
2018-10-19T21:33:28.934Z,10.00
2018-10-19T21:36:01.102Z,10.10
2018-10-19T21:38:32.759Z,10.20
2018-10-19T21:41:04.433Z,10.20
2018-10-19T21:43:36.281Z,10.20
2018-10-19T21:46:08.142Z,10.30
2018-10-19T21:48:39.994Z,10.20
2018-10-19T21:51:11.731Z,10.20
2018-10-19T21:53:43.520Z,10.10
2018-10-19T21:56:15.326Z,10.10
2018-10-19T21:58:47.223Z,10.10
2018-10-19T22:01:19.108Z,10.10
2018-10-19T22:03:50.965Z,10.00
2018-10-19T22:06:22.731Z,10.00
2018-10-19T22:08:54.553Z,9.90
2018-10-19T22:11:26.347Z,9.90
2018-10-19T22:13:58.002Z,10.00
2018-10-19T22:16:29.935Z,9.90
2018-10-19T22:19:01.798Z,9.90
2018-10-19T22:21:33.563Z,9.90
2018-10-19T22:24:05.332Z,9.80
2018-10-19T22:26:37.104Z,9.70
2018-10-19T22:29:09.128Z,9.60
2018-10-19T22:31:40.919Z,9.60
2018-10-19T22:34:12.655Z,9.50
2018-10-19T22:36:44.328Z,9.50
2018-10-19T22:39:15.984Z,9.60
2018-10-19T22:41:47.759Z,9.60
2018-10-19T22:44:19.521Z,9.40
2018-10-19T22:46:51.384Z,9.50
2018-10-19T22:49:23.057Z,9.50
2018-10-19T22:51:54.872Z,9.60
2018-10-19T22:54:26.546Z,9.60
2018-10-19T22:56:58.392Z,9.60
2018-10-19T22:59:30.278Z,9.70
2018-10-19T23:02:01.919Z,9.80
2018-10-19T23:04:33.783Z,9.80
2018-10-19T23:07:05.921Z,9.90
2018-10-19T23:09:38.146Z,9.90
2018-10-19T23:12:09.884Z,9.90
2018-10-19T23:14:41.739Z,10.00
2018-10-19T23:17:13.592Z,10.00
2018-10-19T23:19:45.459Z,10.10
2018-10-19T23:22:17.238Z,10.20
2018-10-19T23:24:48.988Z,10.20
2018-10-19T23:27:20.729Z,10.20
2018-10-19T23:29:52.615Z,10.10
2018-10-19T23:32:24.362Z,10.00
2018-10-19T23:34:56.339Z,10.00
2018-10-19T23:37:28.310Z,10.10
2018-10-19T23:40:00.043Z,10.10
2018-10-19T23:42:31.703Z,10.20
2018-10-19T23:45:03.477Z,10.20
2018-10-19T23:47:35.217Z,10.00
2018-10-19T23:50:07.575Z,9.80
2018-10-19T23:52:39.398Z,9.70
2018-10-19T23:55:11.409Z,9.60
2018-10-19T23:57:43.064Z,9.50
